Time;durP1;ratioP1;P1;durP2;ratioP2;P2;SDS_P1;SDS_P2;PMS_P1;PMS_P2;Temp;Humidity;BMP_temperature;BMP_pressure;BME280_temperature;BME280_humidity;BME280_pressure;Samples;Min_cycle;Max_cycle;Signal;HPM_P1;HPM_P2
2021/08/15 00:00:12;;;;;;;8.20;5.80;;;;;;;;;;5141727;27;20035;-70
2021/08/15 00:02:59;;;;;;;16.20;6.57;;;;;;;;;;5135720;27;20383;-68
2021/08/15 00:05:44;;;;;;;8.70;5.78;;;;;;;;;;5139627;27;20034;-68
2021/08/15 00:08:28;;;;;;;;;;;;;;;;;;5141075;27;20352;-70
2021/08/15 00:11:12;;;;;;;20.52;6.18;;;;;;;;;;5138191;27;19914;-70
2021/08/15 00:13:58;;;;;;;10.75;5.07;;;;;;;;;;5134502;27;20046;-70
2021/08/15 00:16:42;;;;;;;;;;;;;;;;;;5141982;27;20038;-70
2021/08/15 00:19:26;;;;;;;9.40;5.37;;;;;;;;;;5120972;28;19919;-70
2021/08/15 00:22:11;;;;;;;7.78;5.45;;;;;;;;;;5117348;28;20483;-70
2021/08/15 00:24:55;;;;;;;11.35;5.90;;;;;;;;;;5135741;27;20039;-70
2021/08/15 00:27:40;;;;;;;11.07;5.70;;;;;;;;;;5141292;27;20038;-70
2021/08/15 00:30:26;;;;;;;13.27;5.03;;;;;;;;;;5141311;27;20039;-70
2021/08/15 00:33:10;;;;;;;9.05;5.10;;;;;;;;;;5125599;27;20514;-69
2021/08/15 00:35:54;;;;;;;13.23;5.50;;;;;;;;;;5138215;27;20105;-70
2021/08/15 00:38:39;;;;;;;7.03;5.03;;;;;;;;;;5124477;27;20050;-69
2021/08/15 00:41:23;;;;;;;;;;;;;;;;;;5119746;28;20471;-70
2021/08/15 00:44:11;;;;;;;10.13;5.65;;;;;;;;;;5119038;28;19916;-69
2021/08/15 00:46:56;;;;;;;10.10;5.43;;;;;;;;;;5120478;28;20403;-69
2021/08/15 00:49:40;;;;;;;10.75;5.18;;;;;;;;;;5120345;28;20044;-70
2021/08/15 00:52:25;;;;;;;9.32;5.68;;;;;;;;;;5116322;28;20042;-70
2021/08/15 00:55:09;;;;;;;;;;;;;;;;;;5120598;28;20380;-70
2021/08/15 00:57:55;;;;;;;9.13;5.65;;;;;;;;;;5141005;27;19915;-69
2021/08/15 01:00:39;;;;;;;9.15;5.63;;;;;;;;;;5140719;27;20039;-68
2021/08/15 01:03:23;;;;;;;;;;;;;;;;;;5134306;27;20031;-69
2021/08/15 01:06:08;;;;;;;12.30;6.43;;;;;;;;;;5140767;27;19973;-69
2021/08/15 01:08:52;;;;;;;10.52;5.93;;;;;;;;;;5133849;27;20039;-69
2021/08/15 01:11:37;;;;;;;11.90;5.93;;;;;;;;;;5138775;27;20050;-70
2021/08/15 01:14:22;;;;;;;11.05;6.15;;;;;;;;;;5140521;27;20035;-70
2021/08/15 01:17:06;;;;;;;11.70;6.38;;;;;;;;;;5140295;27;20039;-69
2021/08/15 01:19:54;;;;;;;7.72;5.32;;;;;;;;;;5128646;27;20031;-69
2021/08/15 01:22:40;;;;;;;12.93;5.65;;;;;;;;;;5129784;27;20031;-69
2021/08/15 01:25:24;;;;;;;9.40;5.80;;;;;;;;;;5130749;27;20042;-69
2021/08/15 01:28:15;;;;;;;7.72;6.00;;;;;;;;;;5125327;27;20031;-69
2021/08/15 01:31:01;;;;;;;14.05;6.00;;;;;;;;;;5131883;27;20027;-69
2021/08/15 01:33:46;;;;;;;11.02;5.45;;;;;;;;;;5135891;27;20046;-69
2021/08/15 01:36:30;;;;;;;;;;;;;;;;;;5135054;27;20053;-69
2021/08/15 01:39:14;;;;;;;9.35;6.05;;;;;;;;;;5139914;27;19926;-68
2021/08/15 01:41:58;;;;;;;;;;;;;;;;;;5133783;27;20035;-69
2021/08/15 01:44:42;;;;;;;9.23;5.22;;;;;;;;;;5137899;27;19914;-69
2021/08/15 01:47:27;;;;;;;10.27;5.45;;;;;;;;;;5135798;27;20035;-69
2021/08/15 01:50:12;;;;;;;9.73;5.40;;;;;;;;;;5131546;27;20042;-69
2021/08/15 01:52:56;;;;;;;9.05;5.72;;;;;;;;;;5134078;27;20035;-69
2021/08/15 01:55:41;;;;;;;14.75;6.20;;;;;;;;;;5133186;27;20035;-69
2021/08/15 01:58:26;;;;;;;11.10;6.40;;;;;;;;;;5139092;27;20039;-69
2021/08/15 02:01:17;;;;;;;13.98;7.57;;;;;;;;;;5133395;27;20419;-69
2021/08/15 02:04:02;;;;;;;12.98;6.40;;;;;;;;;;5135115;27;20023;-69
2021/08/15 02:06:47;;;;;;;9.98;5.57;;;;;;;;;;5129150;27;20039;-69
2021/08/15 02:09:31;;;;;;;11.38;6.05;;;;;;;;;;5128579;27;20387;-69
2021/08/15 02:12:16;;;;;;;14.60;6.05;;;;;;;;;;5127066;27;20514;-69
2021/08/15 02:15:00;;;;;;;;;;;;;;;;;;5133222;27;20039;-68
2021/08/15 02:17:45;;;;;;;17.27;6.78;;;;;;;;;;5138585;27;19930;-69
2021/08/15 02:20:31;;;;;;;11.13;6.88;;;;;;;;;;5139565;27;20391;-69
2021/08/15 02:23:15;;;;;;;8.88;6.40;;;;;;;;;;5133189;27;20639;-69
2021/08/15 02:25:59;;;;;;;;;;;;;;;;;;5137558;27;20036;-69
2021/08/15 02:28:43;;;;;;;8.30;6.10;;;;;;;;;;5139583;27;19915;-69
2021/08/15 02:31:28;;;;;;;11.70;7.22;;;;;;;;;;5142370;27;20031;-69
2021/08/15 02:34:13;;;;;;;;;;;;;;;;;;5144149;27;20032;-69
2021/08/15 02:36:57;;;;;;;;;;;;;;;;;;5143959;27;19918;-69
2021/08/15 02:39:41;;;;;;;10.35;6.65;;;;;;;;;;5143500;27;20306;-69
2021/08/15 02:42:26;;;;;;;10.40;5.88;;;;;;;;;;5139242;27;20027;-69
2021/08/15 02:45:11;;;;;;;11.18;6.05;;;;;;;;;;5143414;27;20034;-69
2021/08/15 02:47:55;;;;;;;9.00;5.97;;;;;;;;;;5138757;27;20027;-68
2021/08/15 02:50:40;;;;;;;;;;;;;;;;;;5137577;27;20039;-68
2021/08/15 02:53:25;;;;;;;7.27;6.10;;;;;;;;;;5136083;27;19934;-68
2021/08/15 02:56:09;;;;;;;13.85;6.50;;;;;;;;;;5139348;27;20039;-67
2021/08/15 02:58:53;;;;;;;12.02;6.72;;;;;;;;;;5131991;27;20050;-67
2021/08/15 03:01:38;;;;;;;;;;;;;;;;;;5141531;27;20494;-68
2021/08/15 03:04:22;;;;;;;8.30;5.97;;;;;;;;;;5137585;27;19915;-69
2021/08/15 03:07:07;;;;;;;;;;;;;;;;;;5132641;27;20506;-70
2021/08/15 03:09:51;;;;;;;14.00;5.65;;;;;;;;;;5140057;27;20652;-70
2021/08/15 03:12:37;;;;;;;12.63;6.10;;;;;;;;;;5130485;27;20043;-69
2021/08/15 03:15:21;;;;;;;8.25;5.90;;;;;;;;;;5135069;27;20406;-69
2021/08/15 03:18:05;;;;;;;8.60;5.97;;;;;;;;;;5135842;27;20023;-68
2021/08/15 03:20:50;;;;;;;16.98;6.15;;;;;;;;;;5141442;27;20034;-69
2021/08/15 03:23:34;;;;;;;12.13;5.07;;;;;;;;;;5137263;27;20031;-69
2021/08/15 03:26:18;;;;;;;10.38;6.00;;;;;;;;;;5128897;27;20035;-69
2021/08/15 03:29:02;;;;;;;;;;;;;;;;;;5143037;27;20043;-69
2021/08/15 03:31:47;;;;;;;9.70;6.30;;;;;;;;;;5137859;27;20020;-69
2021/08/15 03:34:32;;;;;;;8.32;5.35;;;;;;;;;;5132674;27;20257;-69
2021/08/15 03:37:17;;;;;;;8.25;5.55;;;;;;;;;;5125800;27;20035;-69
2021/08/15 03:40:01;;;;;;;8.23;5.63;;;;;;;;;;5135355;27;20043;-69
2021/08/15 03:42:46;;;;;;;;;;;;;;;;;;5127697;27;20027;-69
2021/08/15 03:45:30;;;;;;;13.57;6.47;;;;;;;;;;5133102;27;19914;-69
2021/08/15 03:48:14;;;;;;;;;;;;;;;;;;5138863;27;20395;-68
2021/08/15 03:50:59;;;;;;;8.60;5.35;;;;;;;;;;5142144;27;19915;-69
2021/08/15 03:53:43;;;;;;;;;;;;;;;;;;5139932;27;20039;-70
2021/08/15 03:56:29;;;;;;;8.68;5.97;;;;;;;;;;5137903;27;19914;-68
2021/08/15 03:59:13;;;;;;;18.20;7.45;;;;;;;;;;5141877;27;20039;-70
2021/08/15 04:01:58;;;;;;;371.08;78.97;;;;;;;;;;5131382;27;20042;-70
2021/08/15 04:04:42;;;;;;;25.23;10.15;;;;;;;;;;5136250;27;20038;-70
2021/08/15 04:07:26;;;;;;;;;;;;;;;;;;5139669;27;20042;-70
2021/08/15 04:10:10;;;;;;;14.60;7.72;;;;;;;;;;5124263;27;20406;-70
2021/08/15 04:12:55;;;;;;;;;;;;;;;;;;5134491;27;20050;-70
2021/08/15 04:15:40;;;;;;;;;;;;;;;;;;5142459;27;19916;-70
2021/08/15 04:18:24;;;;;;;15.77;8.30;;;;;;;;;;5137377;27;19919;-70
2021/08/15 04:21:08;;;;;;;15.48;7.18;;;;;;;;;;5128852;27;20027;-70
2021/08/15 04:23:53;;;;;;;11.98;6.95;;;;;;;;;;5141358;27;20039;-70
2021/08/15 04:26:37;;;;;;;18.65;8.13;;;;;;;;;;5136925;27;20047;-70
2021/08/15 04:29:22;;;;;;;14.60;7.72;;;;;;;;;;5140268;27;20384;-70
2021/08/15 04:32:07;;;;;;;12.48;7.63;;;;;;;;;;5133637;27;20035;-70
2021/08/15 04:34:51;;;;;;;20.45;7.60;;;;;;;;;;5120730;28;20035;-70
2021/08/15 04:37:35;;;;;;;;;;;;;;;;;;5117918;28;20048;-70
2021/08/15 04:40:20;;;;;;;13.05;7.75;;;;;;;;;;5141276;27;19918;-70
2021/08/15 04:43:04;;;;;;;16.88;8.68;;;;;;;;;;5134853;27;20044;-70
2021/08/15 04:45:48;;;;;;;12.27;7.78;;;;;;;;;;5140982;27;20363;-70
2021/08/15 04:48:32;;;;;;;9.77;7.60;;;;;;;;;;5141018;27;20031;-70
2021/08/15 04:51:17;;;;;;;11.52;6.95;;;;;;;;;;5140168;27;20038;-70
2021/08/15 04:54:01;;;;;;;;;;;;;;;;;;5138235;27;20046;-70
2021/08/15 04:56:45;;;;;;;14.43;7.33;;;;;;;;;;5133932;27;19914;-70
2021/08/15 04:59:29;;;;;;;;;;;;;;;;;;5138434;27;20031;-70
2021/08/15 05:02:14;;;;;;;14.37;7.37;;;;;;;;;;5124557;27;19914;-70
2021/08/15 05:04:58;;;;;;;;;;;;;;;;;;5132767;27;20505;-73
2021/08/15 05:07:43;;;;;;;12.35;5.57;;;;;;;;;;5137507;27;19934;-73
2021/08/15 05:10:28;;;;;;;10.60;5.93;;;;;;;;;;5139946;27;20035;-73
2021/08/15 05:13:12;;;;;;;;;;;;;;;;;;5133812;27;20031;-73
2021/08/15 05:15:56;;;;;;;6.43;5.27;;;;;;;;;;5131152;27;20468;-73
2021/08/15 05:18:42;;;;;;;7.05;5.35;;;;;;;;;;5127152;27;20035;-72
2021/08/15 05:21:26;;;;;;;;;;;;;;;;;;5137333;27;20035;-72
2021/08/15 05:24:10;;;;;;;10.48;6.07;;;;;;;;;;5133653;27;19914;-72
2021/08/15 05:26:54;;;;;;;14.70;6.57;;;;;;;;;;5131276;27;20031;-72
2021/08/15 05:29:39;;;;;;;;;;;;;;;;;;5137564;27;20050;-72
2021/08/15 05:32:25;;;;;;;6.75;5.30;;;;;;;;;;5131566;27;19928;-72
2021/08/15 05:35:10;;;;;;;11.35;5.40;;;;;;;;;;5137690;27;20035;-73
2021/08/15 05:37:54;;;;;;;8.27;5.28;;;;;;;;;;5130906;27;20039;-73
2021/08/15 05:40:39;;;;;;;;;;;;;;;;;;5132615;27;20031;-74
2021/08/15 05:43:23;;;;;;;8.97;5.50;;;;;;;;;;5131549;27;19914;-74
2021/08/15 05:46:08;;;;;;;10.63;5.75;;;;;;;;;;5136251;27;20040;-73
2021/08/15 05:48:52;;;;;;;;;;;;;;;;;;5132331;27;20494;-73
2021/08/15 05:51:36;;;;;;;8.70;5.20;;;;;;;;;;5135915;27;19914;-74
2021/08/15 05:54:20;;;;;;;;;;;;;;;;;;5133319;27;20261;-73
2021/08/15 05:57:05;;;;;;;11.57;5.57;;;;;;;;;;5135290;27;19922;-73
2021/08/15 05:59:49;;;;;;;13.52;6.20;;;;;;;;;;5136573;27;20031;-73
2021/08/15 06:02:33;;;;;;;10.00;5.35;;;;;;;;;;5132158;27;20494;-74
2021/08/15 06:05:18;;;;;;;13.77;6.10;;;;;;;;;;5129237;27;20039;-74
2021/08/15 06:08:02;;;;;;;;;;;;;;;;;;5133829;27;20039;-73
2021/08/15 06:10:46;;;;;;;11.65;7.30;;;;;;;;;;5133475;27;19915;-73
2021/08/15 06:13:31;;;;;;;13.30;6.47;;;;;;;;;;5130284;28;20050;-73
2021/08/15 06:16:16;;;;;;;10.98;6.03;;;;;;;;;;5133564;27;20046;-74
2021/08/15 06:19:00;;;;;;;13.90;5.93;;;;;;;;;;5133107;27;20085;-73
2021/08/15 06:21:45;;;;;;;;;;;;;;;;;;5121623;28;20047;-74
2021/08/15 06:24:29;;;;;;;15.53;6.60;;;;;;;;;;5136049;27;19914;-74
2021/08/15 06:27:13;;;;;;;9.93;4.80;;;;;;;;;;5130019;27;20806;-73
2021/08/15 06:29:57;;;;;;;;;;;;;;;;;;5133650;27;20031;-73
2021/08/15 06:32:52;;;;;;;11.17;5.93;;;;;;;;;;5132004;27;20204;-73
2021/08/15 06:35:37;;;;;;;14.45;5.93;;;;;;;;;;5130890;27;20288;-74
2021/08/15 06:38:21;;;;;;;;;;;;;;;;;;5134089;27;20031;-74
2021/08/15 06:41:07;;;;;;;12.18;5.40;;;;;;;;;;5132084;27;19918;-73
2021/08/15 06:43:51;;;;;;;8.35;5.30;;;;;;;;;;5134463;27;20031;-73
2021/08/15 06:46:36;;;;;;;9.43;6.20;;;;;;;;;;5129444;27;20027;-73
2021/08/15 06:49:20;;;;;;;;;;;;;;;;;;5131760;27;20399;-73
2021/08/15 06:52:05;;;;;;;14.63;5.90;;;;;;;;;;5126665;27;19914;-74
2021/08/15 06:54:49;;;;;;;11.30;6.05;;;;;;;;;;5139063;27;20276;-74
2021/08/15 06:57:34;;;;;;;8.13;5.05;;;;;;;;;;5135948;27;20031;-73
2021/08/15 07:00:19;;;;;;;13.13;5.78;;;;;;;;;;5134140;27;20039;-73
2021/08/15 07:03:03;;;;;;;;;;;;;;;;;;5132707;27;20505;-73
2021/08/15 07:05:48;;;;;;;13.75;6.05;;;;;;;;;;5138545;27;19934;-73
2021/08/15 07:08:33;;;;;;;11.05;6.10;;;;;;;;;;5135256;27;20503;-72
2021/08/15 07:11:18;;;;;;;10.23;6.32;;;;;;;;;;5132760;27;20042;-74
2021/08/15 07:14:02;;;;;;;15.00;6.88;;;;;;;;;;5132486;27;20027;-73
2021/08/15 07:16:46;;;;;;;11.70;6.82;;;;;;;;;;5130870;27;20046;-74
2021/08/15 07:19:32;;;;;;;9.65;5.75;;;;;;;;;;5137100;27;20425;-73
2021/08/15 07:22:16;;;;;;;8.60;6.05;;;;;;;;;;5135224;27;20495;-73
2021/08/15 07:25:03;;;;;;;;;;;;;;;;;;5134680;27;20027;-74
2021/08/15 07:27:48;;;;;;;9.50;5.80;;;;;;;;;;5135261;27;19954;-74
2021/08/15 07:30:33;;;;;;;13.20;7.22;;;;;;;;;;5137037;27;20027;-74
2021/08/15 07:33:18;;;;;;;14.00;6.18;;;;;;;;;;5133844;27;20039;-74
2021/08/15 07:36:03;;;;;;;11.35;6.63;;;;;;;;;;5142292;27;20042;-73
2021/08/15 07:38:47;;;;;;;;;;;;;;;;;;5130543;27;20402;-73
2021/08/15 07:41:31;;;;;;;12.35;6.63;;;;;;;;;;5134268;27;19918;-73
2021/08/15 07:44:16;;;;;;;10.10;6.07;;;;;;;;;;5133744;27;20379;-73
2021/08/15 07:47:00;;;;;;;;;;;;;;;;;;5138429;27;20398;-73
2021/08/15 07:49:44;;;;;;;10.25;6.65;;;;;;;;;;5134008;27;20286;-74
2021/08/15 07:52:28;;;;;;;10.38;6.75;;;;;;;;;;5134836;27;20039;-74
2021/08/15 07:55:13;;;;;;;9.23;6.50;;;;;;;;;;5132012;27;20088;-73
2021/08/15 07:57:57;;;;;;;10.90;5.97;;;;;;;;;;5136338;27;20031;-73
2021/08/15 08:00:42;;;;;;;8.32;5.00;;;;;;;;;;5138102;27;20043;-74
2021/08/15 08:03:26;;;;;;;10.70;6.97;;;;;;;;;;5137650;27;20031;-73
2021/08/15 08:06:11;;;;;;;8.48;5.68;;;;;;;;;;5133252;27;20055;-74
2021/08/15 08:08:55;;;;;;;;;;;;;;;;;;5136211;27;20027;-74
2021/08/15 08:11:40;;;;;;;;;;;;;;;;;;5138375;27;19930;-74
2021/08/15 08:14:24;;;;;;;9.32;5.15;;;;;;;;;;5135302;27;19919;-73
2021/08/15 08:17:09;;;;;;;8.82;5.43;;;;;;;;;;5137113;27;20023;-73
2021/08/15 08:19:53;;;;;;;8.65;5.63;;;;;;;;;;5133547;27;20481;-73
2021/08/15 08:22:38;;;;;;;10.90;5.88;;;;;;;;;;5131682;27;20505;-74
2021/08/15 08:25:23;;;;;;;13.02;5.13;;;;;;;;;;5135701;27;20027;-73
2021/08/15 08:28:08;;;;;;;12.55;5.72;;;;;;;;;;5133761;27;20398;-73
2021/08/15 08:30:52;;;;;;;12.50;6.03;;;;;;;;;;5136394;27;20035;-73
2021/08/15 08:33:37;;;;;;;9.90;5.63;;;;;;;;;;5134620;27;20390;-73
2021/08/15 08:36:23;;;;;;;9.45;5.18;;;;;;;;;;5132663;27;20039;-74
2021/08/15 08:39:07;;;;;;;8.75;5.50;;;;;;;;;;5137475;27;20027;-73
2021/08/15 08:41:51;;;;;;;7.68;5.10;;;;;;;;;;5134455;27;20039;-74
2021/08/15 08:44:36;;;;;;;13.90;5.88;;;;;;;;;;5132846;27;20024;-73
2021/08/15 08:47:20;;;;;;;17.52;5.80;;;;;;;;;;5137886;27;20044;-73
2021/08/15 08:50:05;;;;;;;4.70;4.00;;;;;;;;;;5136129;27;20035;-74
2021/08/15 08:52:50;;;;;;;9.32;4.88;;;;;;;;;;5135067;27;20031;-74
2021/08/15 08:55:35;;;;;;;8.25;5.00;;;;;;;;;;5134000;27;20039;-73
2021/08/15 08:58:20;;;;;;;8.73;5.57;;;;;;;;;;5133462;27;20043;-73
2021/08/15 09:01:04;;;;;;;8.77;5.78;;;;;;;;;;5129818;27;20043;-74
2021/08/15 09:03:48;;;;;;;7.72;4.43;;;;;;;;;;5130788;27;20039;-74
2021/08/15 09:06:33;;;;;;;10.57;5.65;;;;;;;;;;5135168;27;20035;-73
2021/08/15 09:09:18;;;;;;;9.00;5.63;;;;;;;;;;5133866;27;20038;-73
2021/08/15 09:12:03;;;;;;;7.55;5.35;;;;;;;;;;5131294;27;20027;-74
2021/08/15 09:15:04;;;;;;;5.63;4.93;;;;;;;;;;5136604;27;20482;-74
2021/08/15 09:17:49;;;;;;;10.38;4.40;;;;;;;;;;5134798;27;20023;-74
2021/08/15 09:20:37;;;;;;;10.13;4.72;;;;;;;;;;5136566;27;20625;-74
2021/08/15 09:23:26;;;;;;;10.80;4.93;;;;;;;;;;5133014;27;20031;-74
2021/08/15 09:26:21;;;;;;;6.25;5.32;;;;;;;;;;5131741;27;20035;-74
2021/08/15 09:29:14;;;;;;;7.60;4.45;;;;;;;;;;5134567;27;20031;-73
2021/08/15 09:31:59;;;;;;;7.20;3.87;;;;;;;;;;5132869;27;20039;-77
2021/08/15 09:34:43;;;;;;;9.20;5.18;;;;;;;;;;5141115;27;20038;-78
2021/08/15 09:37:29;;;;;;;13.40;4.90;;;;;;;;;;5141468;27;20031;-77
2021/08/15 09:40:21;;;;;;;6.43;4.85;;;;;;;;;;5140991;27;20042;-79
2021/08/15 09:43:07;;;;;;;5.25;4.00;;;;;;;;;;5131251;27;20027;-78
2021/08/15 09:45:59;;;;;;;7.13;4.72;;;;;;;;;;5140309;27;20459;-78
2021/08/15 09:48:43;;;;;;;6.35;4.40;;;;;;;;;;5136545;27;20027;-77
2021/08/15 09:51:27;;;;;;;8.15;4.38;;;;;;;;;;5133805;27;20039;-77
2021/08/15 09:54:15;;;;;;;6.10;4.22;;;;;;;;;;5131473;27;20380;-78
2021/08/15 09:57:00;;;;;;;30.58;5.30;;;;;;;;;;5132571;27;20031;-77
2021/08/15 09:59:44;;;;;;;11.32;4.65;;;;;;;;;;5138007;27;20042;-78
2021/08/15 10:02:28;;;;;;;8.20;4.55;;;;;;;;;;5134606;27;20425;-78
2021/08/15 10:05:15;;;;;;;8.63;4.85;;;;;;;;;;5129986;27;20364;-78
2021/08/15 10:08:00;;;;;;;8.95;5.40;;;;;;;;;;5137116;27;20383;-78
2021/08/15 10:10:45;;;;;;;6.45;4.47;;;;;;;;;;5135717;27;20039;-78
2021/08/15 10:13:31;;;;;;;6.93;4.45;;;;;;;;;;5135645;27;20031;-78
2021/08/15 10:16:16;;;;;;;10.32;4.85;;;;;;;;;;5132708;28;20482;-78
2021/08/15 10:19:03;;;;;;;5.72;4.63;;;;;;;;;;5140430;27;20031;-77
2021/08/15 10:21:48;;;;;;;9.88;5.28;;;;;;;;;;5135758;27;20035;-78
2021/08/15 10:24:40;;;;;;;6.43;4.85;;;;;;;;;;5134860;27;20027;-78
2021/08/15 10:27:57;;;;;;;8.02;5.05;;;;;;;;;;5132094;27;20197;-78
2021/08/15 10:30:43;;;;;;;9.73;4.68;;;;;;;;;;5106515;28;20023;-80
2021/08/15 10:33:28;;;;;;;6.55;4.90;;;;;;;;;;5133726;27;20383;-79
2021/08/15 10:36:19;;;;;;;8.88;5.10;;;;;;;;;;5134745;27;20039;-77
2021/08/15 10:39:23;;;;;;;5.72;4.55;;;;;;;;;;5133897;27;20379;-79
2021/08/15 10:42:09;;;;;;;5.78;4.18;;;;;;;;;;5134617;27;20035;-78
2021/08/15 10:45:03;;;;;;;15.23;5.82;;;;;;;;;;5134669;27;20039;-77
2021/08/15 10:48:14;;;;;;;15.43;5.75;;;;;;;;;;5139462;27;20027;-77
2021/08/15 10:51:00;;;;;;;8.05;5.10;;;;;;;;;;5134444;27;20513;-78
2021/08/15 10:53:45;;;;;;;9.65;4.88;;;;;;;;;;5137942;27;20376;-78
2021/08/15 10:56:48;;;;;;;8.48;4.80;;;;;;;;;;5140780;27;20498;-78
2021/08/15 10:59:33;;;;;;;12.82;6.13;;;;;;;;;;5138459;27;20031;-78
2021/08/15 11:02:18;;;;;;;6.10;4.40;;;;;;;;;;5137527;27;20035;-78
2021/08/15 11:05:04;;;;;;;8.60;3.85;;;;;;;;;;5139594;27;20023;-78
2021/08/15 11:07:50;;;;;;;17.20;4.75;;;;;;;;;;5139925;27;20375;-80
2021/08/15 11:11:00;;;;;;;13.88;5.30;;;;;;;;;;5137290;27;20394;-78
2021/08/15 11:13:45;;;;;;;4.78;4.20;;;;;;;;;;5138549;27;20038;-79
2021/08/15 11:16:30;;;;;;;6.25;4.30;;;;;;;;;;5137356;27;20031;-79
2021/08/15 11:19:14;;;;;;;4.88;3.83;;;;;;;;;;5141185;27;20031;-78
2021/08/15 11:22:02;;;;;;;8.98;4.70;;;;;;;;;;5140563;27;20399;-79
2021/08/15 11:24:48;;;;;;;8.48;4.75;;;;;;;;;;5135860;27;20601;-77
2021/08/15 11:27:36;;;;;;;10.60;4.72;;;;;;;;;;5133682;27;20372;-78
2021/08/15 11:30:22;;;;;;;16.40;4.78;;;;;;;;;;5137830;27;20513;-79
2021/08/15 11:33:11;;;;;;;16.80;5.15;;;;;;;;;;5137022;27;20423;-79
2021/08/15 11:35:56;;;;;;;14.13;5.85;;;;;;;;;;5137477;27;20380;-79
2021/08/15 11:38:47;;;;;;;9.98;4.60;;;;;;;;;;5140866;27;20031;-78
2021/08/15 11:41:31;;;;;;;14.00;5.05;;;;;;;;;;5137982;27;20035;-77
2021/08/15 11:44:15;;;;;;;5.13;3.85;;;;;;;;;;5136208;27;20032;-77
2021/08/15 11:47:20;;;;;;;9.95;4.45;;;;;;;;;;5141896;27;20380;-78
2021/08/15 11:50:15;;;;;;;9.30;4.85;;;;;;;;;;5138830;27;20491;-77
2021/08/15 11:53:00;;;;;;;8.52;3.90;;;;;;;;;;5135583;27;20032;-78
2021/08/15 11:55:44;;;;;;;6.85;4.28;;;;;;;;;;5139056;27;20035;-77
2021/08/15 11:58:30;;;;;;;9.55;4.53;;;;;;;;;;5139467;27;20035;-77
2021/08/15 12:01:16;;;;;;;48.88;6.90;;;;;;;;;;5135118;27;20499;-77
2021/08/15 12:04:02;;;;;;;10.82;4.60;;;;;;;;;;5140492;27;20031;-77
2021/08/15 12:06:47;;;;;;;8.32;3.95;;;;;;;;;;5137743;27;20034;-78
2021/08/15 12:09:32;;;;;;;9.57;3.90;;;;;;;;;;5127587;27;20036;-78
2021/08/15 12:12:16;;;;;;;5.47;4.68;;;;;;;;;;5132234;27;20031;-79
2021/08/15 12:15:07;;;;;;;6.60;4.05;;;;;;;;;;5138618;27;20490;-78
2021/08/15 12:17:52;;;;;;;12.10;4.07;;;;;;;;;;5133796;27;20049;-79
2021/08/15 12:20:43;;;;;;;12.35;4.25;;;;;;;;;;5138823;27;20406;-76
2021/08/15 12:23:29;;;;;;;7.50;4.45;;;;;;;;;;5138535;27;20527;-78
2021/08/15 12:26:13;;;;;;;8.65;4.75;;;;;;;;;;5133471;27;20047;-77
2021/08/15 12:28:59;;;;;;;8.57;4.70;;;;;;;;;;5138444;27;20027;-77
2021/08/15 12:31:45;;;;;;;8.90;5.07;;;;;;;;;;5136024;27;20031;-75
2021/08/15 12:34:30;;;;;;;9.68;4.68;;;;;;;;;;5140446;27;20039;-76
2021/08/15 12:37:19;;;;;;;10.10;4.90;;;;;;;;;;5134021;27;20035;-77
2021/08/15 12:40:08;;;;;;;12.90;4.65;;;;;;;;;;5137873;27;20391;-76
2021/08/15 12:42:54;;;;;;;8.60;4.40;;;;;;;;;;5138752;27;20031;-78
2021/08/15 12:45:40;;;;;;;12.38;3.92;;;;;;;;;;5134852;27;20027;-78
2021/08/15 12:48:30;;;;;;;9.70;6.03;;;;;;;;;;5136226;27;20039;-77
2021/08/15 12:51:19;;;;;;;10.10;4.20;;;;;;;;;;5137421;27;20031;-77
2021/08/15 12:54:03;;;;;;;10.35;4.60;;;;;;;;;;5138356;27;20039;-78
2021/08/15 12:56:48;;;;;;;8.10;3.90;;;;;;;;;;5142216;27;20031;-77
2021/08/15 12:59:34;;;;;;;15.88;4.95;;;;;;;;;;5137515;27;20486;-79
2021/08/15 13:02:18;;;;;;;11.02;5.03;;;;;;;;;;5134874;27;20038;-80
2021/08/15 13:05:05;;;;;;;7.90;4.60;;;;;;;;;;5124755;27;20031;-78
2021/08/15 13:07:51;;;;;;;7.18;3.60;;;;;;;;;;5141794;27;20031;-77
2021/08/15 13:10:36;;;;;;;13.10;5.13;;;;;;;;;;5142495;27;20043;-78
2021/08/15 13:13:22;;;;;;;9.18;4.68;;;;;;;;;;5133438;27;20537;-75
2021/08/15 13:16:06;;;;;;;9.63;4.35;;;;;;;;;;5138493;27;20051;-75
2021/08/15 13:18:51;;;;;;;8.00;4.65;;;;;;;;;;5135845;27;20479;-79
2021/08/15 13:21:36;;;;;;;7.32;4.80;;;;;;;;;;5137613;27;20035;-79
2021/08/15 13:24:20;;;;;;;8.13;4.25;;;;;;;;;;5138698;27;20023;-77
2021/08/15 13:27:06;;;;;;;7.90;5.22;;;;;;;;;;5135222;27;20039;-77
2021/08/15 13:29:50;;;;;;;10.13;4.22;;;;;;;;;;5140287;27;20031;-78
2021/08/15 13:32:36;;;;;;;6.78;4.60;;;;;;;;;;5138018;27;20043;-78
2021/08/15 13:35:20;;;;;;;9.68;4.15;;;;;;;;;;5140013;27;20031;-79
2021/08/15 13:38:05;;;;;;;6.07;3.97;;;;;;;;;;5140006;27;20078;-78
2021/08/15 13:40:49;;;;;;;6.82;4.15;;;;;;;;;;5136697;27;20035;-76
2021/08/15 13:43:33;;;;;;;6.47;3.90;;;;;;;;;;5137842;27;20035;-79
2021/08/15 13:46:19;;;;;;;4.93;4.00;;;;;;;;;;5143208;27;20371;-78
2021/08/15 13:49:03;;;;;;;10.48;4.22;;;;;;;;;;5141339;27;20384;-78
2021/08/15 13:51:47;;;;;;;13.55;4.28;;;;;;;;;;5123406;27;20034;-77
2021/08/15 13:54:32;;;;;;;16.13;4.43;;;;;;;;;;5142819;27;20490;-77
2021/08/15 13:57:17;;;;;;;7.10;3.42;;;;;;;;;;5136320;27;20027;-78
2021/08/15 14:00:01;;;;;;;10.65;3.70;;;;;;;;;;5133904;27;20035;-77
2021/08/15 14:02:45;;;;;;;4.57;3.65;;;;;;;;;;5132218;27;20501;-78
2021/08/15 14:05:29;;;;;;;5.18;3.45;;;;;;;;;;5138454;27;20376;-76
2021/08/15 14:08:14;;;;;;;4.85;3.42;;;;;;;;;;5133408;27;20486;-76
2021/08/15 14:10:58;;;;;;;4.22;3.03;;;;;;;;;;5126184;28;20027;-76
2021/08/15 14:13:42;;;;;;;10.25;3.38;;;;;;;;;;5137758;27;20035;-79
2021/08/15 14:16:26;;;;;;;9.10;3.28;;;;;;;;;;5136702;27;20411;-78
2021/08/15 14:19:11;;;;;;;7.93;3.70;;;;;;;;;;5135135;27;20035;-79
2021/08/15 14:21:56;;;;;;;6.43;3.80;;;;;;;;;;5133078;27;20031;-76
2021/08/15 14:24:41;;;;;;;18.05;4.25;;;;;;;;;;5135643;27;20027;-76
2021/08/15 14:27:26;;;;;;;11.50;4.57;;;;;;;;;;5137785;27;20043;-77
2021/08/15 14:30:11;;;;;;;19.58;4.55;;;;;;;;;;5142285;27;20027;-77
2021/08/15 14:32:56;;;;;;;7.95;3.38;;;;;;;;;;5138849;27;20031;-77
2021/08/15 14:35:40;;;;;;;6.55;4.25;;;;;;;;;;5142123;27;20061;-76
2021/08/15 14:38:25;;;;;;;7.78;3.45;;;;;;;;;;5144164;27;20043;-76
2021/08/15 14:41:09;;;;;;;5.88;3.20;;;;;;;;;;5139518;27;20274;-76
2021/08/15 14:43:53;;;;;;;9.07;3.90;;;;;;;;;;5139914;27;20031;-77
2021/08/15 14:46:38;;;;;;;9.45;4.78;;;;;;;;;;5142165;27;20639;-78
2021/08/15 14:49:22;;;;;;;7.60;3.90;;;;;;;;;;5143367;27;20375;-77
2021/08/15 14:52:07;;;;;;;14.75;4.15;;;;;;;;;;5140788;27;20039;-75
2021/08/15 14:54:53;;;;;;;9.52;3.75;;;;;;;;;;5140073;27;20038;-78
2021/08/15 14:57:37;;;;;;;11.15;4.28;;;;;;;;;;5140818;27;20023;-76
2021/08/15 15:00:22;;;;;;;7.72;3.65;;;;;;;;;;5136537;27;20043;-78
2021/08/15 15:03:07;;;;;;;7.25;3.55;;;;;;;;;;5137310;27;20387;-76
2021/08/15 15:05:51;;;;;;;5.90;3.70;;;;;;;;;;5144423;27;20028;-79
2021/08/15 15:08:35;;;;;;;4.85;3.30;;;;;;;;;;5135732;27;20027;-79
2021/08/15 15:11:19;;;;;;;11.20;4.28;;;;;;;;;;5144317;27;20038;-76
2021/08/15 15:14:04;;;;;;;7.45;4.10;;;;;;;;;;5136933;27;20023;-78
2021/08/15 15:16:49;;;;;;;10.98;3.63;;;;;;;;;;5141489;27;20031;-77
2021/08/15 15:19:33;;;;;;;11.85;3.13;;;;;;;;;;5138058;27;20067;-78
2021/08/15 15:22:17;;;;;;;7.53;3.10;;;;;;;;;;5136402;27;20518;-78
2021/08/15 15:25:02;;;;;;;9.23;3.95;;;;;;;;;;5144769;27;20031;-77
2021/08/15 15:27:47;;;;;;;6.97;3.35;;;;;;;;;;5131096;27;20031;-78
2021/08/15 15:30:31;;;;;;;10.48;3.30;;;;;;;;;;5122082;27;20031;-77
2021/08/15 15:33:15;;;;;;;5.28;3.15;;;;;;;;;;5138786;27;20036;-76
2021/08/15 15:35:59;;;;;;;12.68;3.80;;;;;;;;;;5140953;27;20039;-78
2021/08/15 15:38:44;;;;;;;9.60;3.20;;;;;;;;;;5143078;27;20042;-78
2021/08/15 15:41:29;;;;;;;9.95;3.80;;;;;;;;;;5125773;27;20035;-77
2021/08/15 15:44:13;;;;;;;15.45;5.72;;;;;;;;;;5144377;27;20039;-79
2021/08/15 15:46:57;;;;;;;10.85;3.55;;;;;;;;;;5137139;27;20028;-77
2021/08/15 15:49:41;;;;;;;10.55;3.88;;;;;;;;;;5140546;27;20043;-78
2021/08/15 15:52:26;;;;;;;8.32;3.53;;;;;;;;;;5138571;27;20046;-78
2021/08/15 15:55:11;;;;;;;10.85;3.65;;;;;;;;;;5138277;27;20039;-79
2021/08/15 15:57:55;;;;;;;8.88;3.60;;;;;;;;;;5141593;27;20039;-78
2021/08/15 16:00:41;;;;;;;12.48;3.80;;;;;;;;;;5139308;27;20035;-77
2021/08/15 16:03:25;;;;;;;5.70;3.40;;;;;;;;;;5136218;27;20031;-77
2021/08/15 16:06:10;;;;;;;12.93;3.33;;;;;;;;;;5142625;27;20039;-78
2021/08/15 16:08:55;;;;;;;7.65;3.65;;;;;;;;;;5135417;27;20024;-79
2021/08/15 16:11:39;;;;;;;9.10;3.28;;;;;;;;;;5140805;27;20031;-78
2021/08/15 16:14:24;;;;;;;8.15;3.58;;;;;;;;;;5135689;27;20039;-78
2021/08/15 16:17:08;;;;;;;7.38;4.28;;;;;;;;;;5142802;27;20035;-77
2021/08/15 16:19:54;;;;;;;9.25;3.40;;;;;;;;;;5136268;27;20031;-77
2021/08/15 16:22:39;;;;;;;7.20;3.15;;;;;;;;;;5135150;27;20043;-77
2021/08/15 16:25:23;;;;;;;11.40;4.22;;;;;;;;;;5141315;27;20024;-76
2021/08/15 16:28:07;;;;;;;8.68;3.85;;;;;;;;;;5139980;27;20039;-74
2021/08/15 16:30:52;;;;;;;6.30;3.30;;;;;;;;;;5138148;27;20031;-77
2021/08/15 16:33:36;;;;;;;12.18;4.32;;;;;;;;;;5142786;27;20038;-76
2021/08/15 16:36:20;;;;;;;12.10;4.28;;;;;;;;;;5145069;27;20038;-77
2021/08/15 16:39:05;;;;;;;10.55;3.85;;;;;;;;;;5140675;27;20525;-75